createdAt,value
2022-09-28T00:01:52.027Z,99409.44
2022-09-28T00:04:18.778Z,99412.00
2022-09-28T00:06:45.445Z,99409.59
2022-09-28T00:09:12.071Z,99408.66
2022-09-28T00:11:38.788Z,99396.25
2022-09-28T00:14:07.456Z,99407.69
2022-09-28T00:16:36.069Z,99398.66
2022-09-28T00:19:05.357Z,99398.44
2022-09-28T00:21:33.959Z,99405.38
2022-09-28T00:24:17.530Z,99405.03
2022-09-28T00:26:45.856Z,99400.22
2022-09-28T00:29:22.349Z,99403.50
2022-09-28T00:31:52.514Z,99403.50
2022-09-28T00:34:19.612Z,99393.69
2022-09-28T00:36:47.011Z,99397.81
2022-09-28T00:39:14.853Z,99387.56
2022-09-28T00:41:41.750Z,99393.53
2022-09-28T00:44:26.716Z,99397.72
2022-09-28T00:46:59.014Z,99391.00
2022-09-28T00:49:33.230Z,99390.25
2022-09-28T00:52:00.238Z,99390.09
2022-09-28T00:54:26.952Z,99390.09
2022-09-28T00:56:53.712Z,99382.44
2022-09-28T00:59:20.534Z,99388.97
2022-09-28T01:01:47.304Z,99385.09
2022-09-28T01:04:14.204Z,99380.63
2022-09-28T01:06:40.908Z,99378.31
2022-09-28T01:09:14.202Z,99383.22
2022-09-28T01:11:42.431Z,99382.09
2022-09-28T01:14:12.490Z,99377.59
2022-09-28T01:16:50.719Z,99379.59
2022-09-28T01:19:44.331Z,99383.00
2022-09-28T01:22:48.436Z,99378.47
2022-09-28T01:25:46.032Z,99374.84
2022-09-28T01:28:15.461Z,99375.72
2022-09-28T01:30:56.694Z,99375.38
2022-09-28T01:33:26.902Z,99368.22
2022-09-28T01:35:58.467Z,99369.47
2022-09-28T01:38:35.970Z,99369.28
2022-09-28T01:41:03.428Z,99374.78
2022-09-28T01:43:31.690Z,99363.78
2022-09-28T01:46:14.887Z,99364.47
2022-09-28T01:48:55.211Z,99364.13
2022-09-28T01:52:02.325Z,99367.38
2022-09-28T01:54:42.287Z,99368.34
2022-09-28T01:57:15.362Z,99361.19
2022-09-28T01:59:46.129Z,99361.00
2022-09-28T02:02:16.387Z,99361.69
2022-09-28T02:04:47.228Z,99358.09
2022-09-28T02:07:23.457Z,99361.63
2022-09-28T02:10:00.982Z,99354.47
2022-09-28T02:12:34.584Z,99361.28
2022-09-28T02:15:26.606Z,99353.63
2022-09-28T02:17:53.533Z,99358.94
2022-09-28T02:20:21.737Z,99350.09
2022-09-28T02:22:50.949Z,99355.34
2022-09-28T02:25:31.560Z,99350.03
2022-09-28T02:28:04.163Z,99346.47
2022-09-28T02:30:32.369Z,99347.03
2022-09-28T02:33:23.464Z,99349.31
2022-09-28T02:35:50.231Z,99347.50
2022-09-28T02:38:18.600Z,99339.78
2022-09-28T02:40:55.905Z,99349.31
2022-09-28T02:43:48.365Z,99343.13
2022-09-28T02:46:23.821Z,99331.69
2022-09-28T02:49:21.306Z,99345.00
2022-09-28T02:52:35.426Z,99339.69
2022-09-28T02:55:18.918Z,99337.13
2022-09-28T02:58:01.610Z,99342.53
2022-09-28T03:00:29.971Z,99334.91
2022-09-28T03:03:19.222Z,99334.13
2022-09-28T03:06:11.591Z,99328.97
2022-09-28T03:08:56.371Z,99325.44
2022-09-28T03:11:33.292Z,99326.47
2022-09-28T03:14:00.542Z,99315.91
2022-09-28T03:16:36.994Z,99309.97
2022-09-28T03:19:03.748Z,99311.78
2022-09-28T03:21:30.503Z,99307.41
2022-09-28T03:23:57.812Z,99304.97
2022-09-28T03:26:24.491Z,99302.50
2022-09-28T03:28:51.134Z,99298.19
2022-09-28T03:31:22.944Z,99307.31
2022-09-28T03:33:51.455Z,99296.91
2022-09-28T03:36:18.384Z,99301.63
2022-09-28T03:38:45.132Z,99300.28
2022-09-28T03:41:11.824Z,99298.72
2022-09-28T03:43:41.594Z,99303.34
2022-09-28T03:46:08.545Z,99297.41
2022-09-28T03:48:40.697Z,99303.00
2022-09-28T03:51:10.081Z,99300.53
2022-09-28T03:53:39.000Z,99298.94
2022-09-28T03:56:14.155Z,99295.44
2022-09-28T03:58:41.846Z,99297.31
2022-09-28T04:01:16.454Z,99303.50
2022-09-28T04:03:45.579Z,99304.25
2022-09-28T04:06:12.290Z,99292.75
2022-09-28T04:08:39.317Z,99291.75
2022-09-28T04:11:06.364Z,99291.66
2022-09-28T04:13:33.933Z,99290.72
2022-09-28T04:16:01.696Z,99285.63
2022-09-28T04:18:32.794Z,99280.06
2022-09-28T04:21:28.942Z,99273.63
2022-09-28T04:24:02.426Z,99280.59
2022-09-28T04:26:29.165Z,99274.69
2022-09-28T04:29:15.513Z,99276.09
2022-09-28T04:31:46.481Z,99279.66
2022-09-28T04:34:17.493Z,99281.41
2022-09-28T04:36:45.152Z,99285.91
2022-09-28T04:39:12.793Z,99281.59
2022-09-28T04:41:41.888Z,99284.34
2022-09-28T04:44:09.347Z,99278.25
2022-09-28T04:46:36.216Z,99279.34
2022-09-28T04:49:32.115Z,99273.97
2022-09-28T04:52:06.458Z,99274.75
2022-09-28T04:54:34.448Z,99277.31
2022-09-28T04:57:03.445Z,99271.13
2022-09-28T04:59:30.137Z,99285.31
2022-09-28T05:01:56.922Z,99292.19
2022-09-28T05:04:41.669Z,99288.75
2022-09-28T05:07:27.082Z,99292.94
2022-09-28T05:09:55.368Z,99284.78
2022-09-28T05:12:22.152Z,99299.63
2022-09-28T05:14:48.940Z,99293.13
2022-09-28T05:17:15.666Z,99296.88
2022-09-28T05:20:14.550Z,99290.69
2022-09-28T05:22:41.643Z,99296.13
2022-09-28T05:25:09.456Z,99303.34
2022-09-28T05:27:47.648Z,99290.47
2022-09-28T05:30:30.280Z,99292.78
2022-09-28T05:33:32.936Z,99289.09
2022-09-28T05:36:11.135Z,99286.19
2022-09-28T05:38:38.217Z,99282.69
2022-09-28T05:41:06.717Z,99286.69
2022-09-28T05:43:33.614Z,99284.81
2022-09-28T05:46:00.721Z,99275.00
2022-09-28T05:48:28.426Z,99278.28
2022-09-28T05:50:55.163Z,99278.19
2022-09-28T05:53:21.993Z,99268.06
2022-09-28T05:55:49.197Z,99266.34
2022-09-28T05:58:16.373Z,99275.53
2022-09-28T06:00:43.465Z,99267.19
2022-09-28T06:03:14.181Z,99267.00
2022-09-28T06:05:41.446Z,99258.94
2022-09-28T06:08:10.769Z,99257.94
2022-09-28T06:10:39.314Z,99258.06
2022-09-28T06:13:06.731Z,99248.69
2022-09-28T06:15:34.606Z,99249.38
2022-09-28T06:18:03.669Z,99254.78
2022-09-28T06:20:56.780Z,99254.31
2022-09-28T06:23:31.371Z,99244.34
2022-09-28T06:25:59.411Z,99261.69
2022-09-28T06:28:27.056Z,99261.09
2022-09-28T06:30:54.281Z,99257.22
2022-09-28T06:33:22.068Z,99252.59
2022-09-28T06:35:48.801Z,99250.88
2022-09-28T06:38:15.884Z,99243.25
2022-09-28T06:40:42.581Z,99245.72
2022-09-28T06:43:15.277Z,99244.84
2022-09-28T06:46:01.573Z,99237.13
2022-09-28T06:48:32.625Z,99239.84
2022-09-28T06:51:00.818Z,99246.53
2022-09-28T06:53:40.638Z,99237.22
2022-09-28T06:56:37.248Z,99238.00
2022-09-28T06:59:04.558Z,99241.78
2022-09-28T07:01:31.523Z,99243.19
2022-09-28T07:04:18.500Z,99242.09
2022-09-28T07:07:23.400Z,99242.78
2022-09-28T07:10:17.248Z,99241.78
2022-09-28T07:13:04.235Z,99237.75
2022-09-28T07:15:40.404Z,99240.97
2022-09-28T07:18:12.032Z,99237.16
2022-09-28T07:20:52.378Z,99244.09
2022-09-28T07:23:20.837Z,99241.50
2022-09-28T07:26:11.305Z,99247.31
2022-09-28T07:28:56.075Z,99239.63
2022-09-28T07:31:38.114Z,99243.56
2022-09-28T07:34:13.910Z,99244.13
2022-09-28T07:36:59.875Z,99248.94
2022-09-28T07:39:26.637Z,99248.25
2022-09-28T07:41:56.748Z,99248.25
2022-09-28T07:44:26.432Z,99249.03
2022-09-28T07:46:54.474Z,99253.06
2022-09-28T07:49:26.623Z,99259.03
2022-09-28T07:52:12.573Z,99254.06
2022-09-28T07:54:57.896Z,99246.59
2022-09-28T07:57:43.393Z,99249.19
2022-09-28T08:00:21.782Z,99245.13
2022-09-28T08:02:48.845Z,99248.13
2022-09-28T08:05:22.520Z,99248.88
2022-09-28T08:07:49.266Z,99250.03
2022-09-28T08:10:17.520Z,99253.44
2022-09-28T08:13:06.471Z,99250.50
2022-09-28T08:16:01.692Z,99254.28
2022-09-28T08:18:51.073Z,99250.53
2022-09-28T08:21:36.506Z,99248.41
2022-09-28T08:24:03.179Z,99251.72
2022-09-28T08:26:30.014Z,99252.28
2022-09-28T08:28:57.796Z,99258.91
2022-09-28T08:31:48.100Z,99261.19
2022-09-28T08:34:39.492Z,99258.19
2022-09-28T08:37:19.666Z,99270.84
2022-09-28T08:40:05.398Z,99266.09
2022-09-28T08:42:55.951Z,99264.63
2022-09-28T08:45:45.568Z,99271.22
2022-09-28T08:49:01.406Z,99264.69
2022-09-28T08:52:19.243Z,99268.22
2022-09-28T08:55:07.709Z,99267.31
2022-09-28T08:57:45.348Z,99264.38
2022-09-28T09:00:51.957Z,99259.22
2022-09-28T09:03:32.792Z,99260.53
2022-09-28T09:06:37.602Z,99261.38
2022-09-28T09:10:05.240Z,99257.19
2022-09-28T09:12:37.629Z,99259.47
2022-09-28T09:15:28.607Z,99254.75
2022-09-28T09:18:25.559Z,99248.44
2022-09-28T09:21:18.071Z,99253.38
2022-09-28T09:24:21.604Z,99252.53
2022-09-28T09:26:52.656Z,99249.44
2022-09-28T09:29:46.883Z,99261.44
2022-09-28T09:32:29.266Z,99255.81
2022-09-28T09:35:00.195Z,99259.09
2022-09-28T09:38:19.677Z,99251.19
2022-09-28T09:40:58.713Z,99251.06
2022-09-28T09:44:10.922Z,99250.09
2022-09-28T09:47:19.861Z,99258.88
2022-09-28T09:50:13.656Z,99261.44
2022-09-28T09:52:55.005Z,99248.38
2022-09-28T09:55:30.456Z,99256.91
2022-09-28T09:58:24.374Z,99252.16
2022-09-28T10:01:06.188Z,99253.50
2022-09-28T10:03:52.996Z,99256.63
2022-09-28T10:06:27.565Z,99252.97
2022-09-28T10:09:12.622Z,99262.34
2022-09-28T10:11:50.052Z,99264.13
2022-09-28T10:14:20.189Z,99262.00
2022-09-28T10:16:54.547Z,99265.88
2022-09-28T10:19:42.377Z,99265.34
2022-09-28T10:22:29.003Z,99264.81
2022-09-28T10:25:00.108Z,99267.13
2022-09-28T10:27:34.020Z,99258.63
2022-09-28T10:30:09.828Z,99254.75
2022-09-28T10:32:41.701Z,99268.44
2022-09-28T10:35:29.862Z,99269.75
2022-09-28T10:38:05.130Z,99275.13
2022-09-28T10:40:54.552Z,99276.69
2022-09-28T10:44:07.051Z,99279.78
2022-09-28T10:47:00.037Z,99280.69
2022-09-28T10:49:35.808Z,99286.28
2022-09-28T10:52:02.592Z,99282.75
2022-09-28T10:54:37.228Z,99286.88
2022-09-28T10:57:13.366Z,99283.75
2022-09-28T10:59:54.069Z,99284.69
2022-09-28T11:02:35.483Z,99286.22
2022-09-28T11:05:22.182Z,99293.38
2022-09-28T11:07:49.969Z,99288.94
2022-09-28T11:10:22.913Z,99288.16
2022-09-28T11:12:51.422Z,99286.16
2022-09-28T11:15:26.147Z,99289.28
2022-09-28T11:17:53.156Z,99285.59
2022-09-28T11:20:27.526Z,99293.06
2022-09-28T11:23:18.169Z,99288.09
2022-09-28T11:26:06.919Z,99292.38
2022-09-28T11:28:37.570Z,99295.63
2022-09-28T11:31:11.969Z,99293.88
2022-09-28T11:34:06.420Z,99286.88
2022-09-28T11:37:02.356Z,99292.63
2022-09-28T11:39:47.866Z,99289.56
2022-09-28T11:42:20.834Z,99285.16
2022-09-28T11:44:49.002Z,99283.28
2022-09-28T11:47:41.729Z,99284.56
2022-09-28T11:50:28.851Z,99288.50
2022-09-28T11:53:13.425Z,99286.59
2022-09-28T11:55:51.026Z,99291.97
2022-09-28T11:58:22.896Z,99290.09
2022-09-28T12:00:55.030Z,99289.88
2022-09-28T12:03:39.547Z,99291.59
2022-09-28T12:06:11.081Z,99293.50
2022-09-28T12:08:42.299Z,99289.75
2022-09-28T12:11:13.153Z,99295.09
2022-09-28T12:14:05.301Z,99298.84
2022-09-28T12:17:04.099Z,99296.31
2022-09-28T12:19:32.757Z,99292.28
2022-09-28T12:22:12.807Z,99293.72
2022-09-28T12:24:43.256Z,99290.09
2022-09-28T12:27:09.933Z,99292.56
2022-09-28T12:29:56.095Z,99293.19
2022-09-28T12:32:37.649Z,99293.78
2022-09-28T12:35:15.290Z,99286.94
2022-09-28T12:37:58.790Z,99291.22
2022-09-28T12:40:45.659Z,99284.13
2022-09-28T12:43:31.276Z,99288.34
2022-09-28T12:46:11.982Z,99287.72
2022-09-28T12:49:56.330Z,99284.41
2022-09-28T12:52:19.070Z,99283.53
2022-09-28T12:55:01.365Z,99281.69
2022-09-28T12:57:46.715Z,99279.78
2022-09-28T13:00:16.614Z,99287.81
2022-09-28T13:03:02.592Z,99283.44
2022-09-28T13:05:47.685Z,99283.13
2022-09-28T13:08:31.083Z,99282.47
2022-09-28T13:11:05.474Z,99278.75
2022-09-28T13:14:10.047Z,99288.81
2022-09-28T13:16:36.942Z,99286.44
2022-09-28T13:19:18.832Z,99285.31
2022-09-28T13:22:27.067Z,99283.69
2022-09-28T13:24:55.799Z,99275.88
2022-09-28T13:27:33.494Z,99281.34
2022-09-28T13:30:01.294Z,99283.16
2022-09-28T13:32:31.617Z,99288.72
2022-09-28T13:34:58.898Z,99283.59
2022-09-28T13:37:26.007Z,99286.34
2022-09-28T13:39:59.393Z,99284.31
2022-09-28T13:42:47.523Z,99288.28
2022-09-28T13:45:20.303Z,99290.63
2022-09-28T13:47:50.022Z,99281.53
2022-09-28T13:50:34.975Z,99293.03
2022-09-28T13:53:50.226Z,99290.50
2022-09-28T13:56:49.279Z,99295.34
2022-09-28T13:59:21.986Z,99293.91
2022-09-28T14:02:06.635Z,99290.94
2022-09-28T14:05:03.216Z,99297.88
2022-09-28T14:07:35.825Z,99302.44
2022-09-28T14:10:14.918Z,99302.38
2022-09-28T14:12:49.003Z,99304.66
2022-09-28T14:15:40.355Z,99310.34
2022-09-28T14:18:16.242Z,99311.41
2022-09-28T14:20:56.350Z,99315.91
2022-09-28T14:24:04.561Z,99323.94
2022-09-28T14:27:04.594Z,99320.00
2022-09-28T14:29:37.380Z,99321.38
2022-09-28T14:32:25.226Z,99326.53
2022-09-28T14:34:58.541Z,99336.69
2022-09-28T14:37:50.983Z,99326.88
2022-09-28T14:40:45.834Z,99337.13
2022-09-28T14:43:24.927Z,99335.75
2022-09-28T14:46:11.772Z,99334.44
2022-09-28T14:48:57.810Z,99342.50
2022-09-28T14:51:27.516Z,99343.59
2022-09-28T14:53:56.703Z,99344.94
2022-09-28T14:56:24.947Z,99351.91
2022-09-28T14:58:55.096Z,99349.44
2022-09-28T15:01:24.794Z,99354.63
2022-09-28T15:03:54.972Z,99360.41
2022-09-28T15:06:25.494Z,99356.22
2022-09-28T15:08:52.185Z,99353.41
2022-09-28T15:11:24.703Z,99357.16
2022-09-28T15:14:06.266Z,99358.38
2022-09-28T15:16:34.185Z,99357.38
2022-09-28T15:19:10.472Z,99363.63
2022-09-28T15:21:39.191Z,99359.88
2022-09-28T15:24:26.185Z,99367.13
2022-09-28T15:26:53.382Z,99367.66
2022-09-28T15:29:22.960Z,99372.50
2022-09-28T15:31:54.174Z,99373.13
2022-09-28T15:34:49.990Z,99376.78
2022-09-28T15:37:40.617Z,99374.63
2022-09-28T15:40:13.602Z,99377.84
2022-09-28T15:42:40.338Z,99374.22
2022-09-28T15:45:25.585Z,99370.91
2022-09-28T15:47:57.636Z,99376.97
2022-09-28T15:50:31.848Z,99371.72
2022-09-28T15:53:03.856Z,99379.13
2022-09-28T15:55:36.761Z,99383.84
2022-09-28T15:58:12.702Z,99380.09
2022-09-28T16:00:40.345Z,99384.22
2022-09-28T16:03:07.088Z,99381.34
2022-09-28T16:05:47.323Z,99381.13
2022-09-28T16:08:24.345Z,99386.28
2022-09-28T16:10:59.968Z,99387.63
2022-09-28T16:13:26.849Z,99396.50
2022-09-28T16:15:58.229Z,99392.34
2022-09-28T16:18:29.878Z,99402.19
2022-09-28T16:21:35.261Z,99401.97
2022-09-28T16:24:02.064Z,99405.19
2022-09-28T16:26:39.086Z,99408.91
2022-09-28T16:29:42.113Z,99416.38
2022-09-28T16:32:27.153Z,99424.91
2022-09-28T16:35:09.330Z,99420.81
2022-09-28T16:37:36.398Z,99425.50
2022-09-28T16:40:04.569Z,99428.28
2022-09-28T16:42:32.019Z,99432.09
2022-09-28T16:44:59.279Z,99427.81
2022-09-28T16:47:26.108Z,99434.50
2022-09-28T16:49:52.915Z,99436.34
2022-09-28T16:52:39.739Z,99430.06
2022-09-28T16:55:40.562Z,99435.50
2022-09-28T16:58:04.892Z,99442.09
2022-09-28T17:00:33.656Z,99444.22
2022-09-28T17:03:00.530Z,99439.81
2022-09-28T17:05:27.431Z,99445.44
2022-09-28T17:08:01.422Z,99441.88
2022-09-28T17:10:55.719Z,99448.28
2022-09-28T17:13:33.421Z,99446.84
2022-09-28T17:16:01.823Z,99447.91
2022-09-28T17:18:32.284Z,99445.41
2022-09-28T17:21:03.310Z,99450.88
2022-09-28T17:23:30.551Z,99451.81
2022-09-28T17:25:59.165Z,99451.91
2022-09-28T17:28:27.683Z,99456.50
2022-09-28T17:30:54.840Z,99461.09
2022-09-28T17:33:21.716Z,99458.53
2022-09-28T17:35:48.521Z,99467.50
2022-09-28T17:38:15.871Z,99465.19
2022-09-28T17:40:43.818Z,99468.63
2022-09-28T17:43:10.608Z,99462.53
2022-09-28T17:45:41.740Z,99465.28
2022-09-28T17:48:15.907Z,99468.03
2022-09-28T17:50:46.385Z,99473.50
2022-09-28T17:53:14.011Z,99474.44
2022-09-28T17:55:43.179Z,99468.16
2022-09-28T17:58:20.045Z,99465.66
2022-09-28T18:00:48.208Z,99471.09
2022-09-28T18:03:17.057Z,99474.91
2022-09-28T18:05:44.638Z,99465.97
2022-09-28T18:08:14.416Z,99474.06
2022-09-28T18:10:41.452Z,99474.06
2022-09-28T18:13:08.648Z,99479.09
2022-09-28T18:15:36.273Z,99477.78
2022-09-28T18:18:03.291Z,99483.97
2022-09-28T18:20:30.758Z,99483.91
2022-09-28T18:22:57.920Z,99486.81
2022-09-28T18:25:24.960Z,99490.09
2022-09-28T18:27:54.635Z,99496.50
2022-09-28T18:30:21.594Z,99504.31
2022-09-28T18:32:48.463Z,99500.09
2022-09-28T18:35:19.390Z,99508.13
2022-09-28T18:37:49.947Z,99500.94
2022-09-28T18:40:16.968Z,99503.63
2022-09-28T18:42:43.880Z,99506.28
2022-09-28T18:45:11.440Z,99509.09
2022-09-28T18:47:39.200Z,99508.41
2022-09-28T18:50:06.564Z,99510.22
2022-09-28T18:52:36.531Z,99518.31
2022-09-28T18:55:04.325Z,99524.81
2022-09-28T18:57:33.627Z,99523.16
2022-09-28T19:00:01.714Z,99523.34
2022-09-28T19:02:28.658Z,99518.09
2022-09-28T19:04:55.531Z,99522.66
2022-09-28T19:07:24.184Z,99522.66
2022-09-28T19:09:51.442Z,99521.06
2022-09-28T19:12:19.099Z,99536.31
2022-09-28T19:14:46.019Z,99536.38
2022-09-28T19:17:12.745Z,99540.09
2022-09-28T19:19:39.495Z,99536.84
2022-09-28T19:22:06.299Z,99538.75
2022-09-28T19:24:34.130Z,99534.44
2022-09-28T19:27:00.987Z,99538.16
2022-09-28T19:29:27.760Z,99543.66
2022-09-28T19:31:56.817Z,99544.81
2022-09-28T19:34:27.056Z,99541.28
2022-09-28T19:36:53.838Z,99541.63
2022-09-28T19:39:20.514Z,99543.41
2022-09-28T19:41:51.388Z,99544.56
2022-09-28T19:44:25.226Z,99540.41
2022-09-28T19:46:54.766Z,99549.56
2022-09-28T19:49:22.788Z,99548.00
2022-09-28T19:52:11.591Z,99546.38
2022-09-28T19:54:37.621Z,99545.88
2022-09-28T19:57:08.137Z,99555.94
2022-09-28T19:59:36.758Z,99552.66
2022-09-28T20:02:05.523Z,99552.88
2022-09-28T20:04:32.439Z,99556.88
2022-09-28T20:06:59.151Z,99551.69
2022-09-28T20:09:25.981Z,99562.53
2022-09-28T20:11:53.267Z,99562.06
2022-09-28T20:14:22.383Z,99571.09
2022-09-28T20:16:51.223Z,99574.03
2022-09-28T20:19:21.194Z,99575.16
2022-09-28T20:21:48.478Z,99573.66
2022-09-28T20:24:16.693Z,99572.03
2022-09-28T20:26:44.733Z,99582.84
2022-09-28T20:29:12.067Z,99575.00
2022-09-28T20:31:38.863Z,99580.44
2022-09-28T20:34:06.595Z,99585.59
2022-09-28T20:36:33.667Z,99585.91
2022-09-28T20:39:04.393Z,99584.16
2022-09-28T20:41:35.763Z,99586.44
2022-09-28T20:44:05.815Z,99592.03
2022-09-28T20:46:36.107Z,99588.19
2022-09-28T20:49:03.840Z,99596.97
2022-09-28T20:51:31.089Z,99594.78
2022-09-28T20:53:58.716Z,99596.50
2022-09-28T20:56:26.304Z,99600.47
2022-09-28T20:58:54.024Z,99605.66
2022-09-28T21:01:23.004Z,99610.75
2022-09-28T21:03:57.639Z,99607.75
2022-09-28T21:06:26.948Z,99607.59
2022-09-28T21:08:53.733Z,99613.63
2022-09-28T21:11:22.714Z,99615.19
2022-09-28T21:13:53.664Z,99619.63
2022-09-28T21:16:20.844Z,99615.19
2022-09-28T21:18:47.942Z,99614.06
2022-09-28T21:21:16.143Z,99618.63
2022-09-28T21:23:45.003Z,99619.22
2022-09-28T21:26:19.040Z,99620.88
2022-09-28T21:28:46.106Z,99630.50
2022-09-28T21:31:12.985Z,99622.44
2022-09-28T21:33:39.684Z,99625.16
2022-09-28T21:36:07.883Z,99626.88
2022-09-28T21:38:34.637Z,99635.13
2022-09-28T21:41:01.405Z,99633.94
2022-09-28T21:43:29.152Z,99633.00
2022-09-28T21:45:56.403Z,99631.28
2022-09-28T21:48:24.261Z,99643.66
2022-09-28T21:51:02.733Z,99644.69
2022-09-28T21:53:35.127Z,99641.94
2022-09-28T21:56:02.584Z,99646.09
2022-09-28T21:58:31.111Z,99643.59
2022-09-28T22:01:07.125Z,99651.66
2022-09-28T22:03:35.689Z,99651.78
2022-09-28T22:06:03.430Z,99647.09
2022-09-28T22:08:30.442Z,99651.50
2022-09-28T22:11:24.495Z,99648.00
2022-09-28T22:13:56.005Z,99644.53
2022-09-28T22:16:25.442Z,99648.84
2022-09-28T22:18:52.356Z,99645.25
2022-09-28T22:21:21.672Z,99647.91
2022-09-28T22:23:48.628Z,99646.19
2022-09-28T22:26:20.980Z,99655.09
2022-09-28T22:28:58.965Z,99649.00
2022-09-28T22:31:30.986Z,99647.44
2022-09-28T22:33:58.057Z,99651.91
2022-09-28T22:36:26.014Z,99657.34
2022-09-28T22:38:52.888Z,99655.88
2022-09-28T22:41:22.885Z,99656.97
2022-09-28T22:43:50.849Z,99658.06
2022-09-28T22:46:20.225Z,99657.47
2022-09-28T22:48:48.727Z,99648.84
2022-09-28T22:51:15.911Z,99656.13
2022-09-28T22:53:43.119Z,99649.50
2022-09-28T22:56:12.593Z,99665.63
2022-09-28T22:58:42.732Z,99664.25
2022-09-28T23:01:14.519Z,99664.31
2022-09-28T23:03:42.376Z,99670.94
2022-09-28T23:06:10.135Z,99664.97
2022-09-28T23:08:36.835Z,99669.50
2022-09-28T23:11:04.358Z,99667.94
2022-09-28T23:13:31.306Z,99661.75
2022-09-28T23:16:00.393Z,99667.22
2022-09-28T23:18:29.199Z,99671.00
2022-09-28T23:20:56.993Z,99674.56
2022-09-28T23:23:23.846Z,99673.78
2022-09-28T23:25:51.555Z,99669.50
2022-09-28T23:28:19.104Z,99668.78
2022-09-28T23:30:45.846Z,99668.09
2022-09-28T23:33:13.958Z,99669.88
2022-09-28T23:35:41.294Z,99665.50
2022-09-28T23:38:11.981Z,99656.88
2022-09-28T23:40:38.776Z,99664.94
2022-09-28T23:43:05.567Z,99672.06
2022-09-28T23:45:32.247Z,99673.09
2022-09-28T23:47:58.964Z,99674.63
2022-09-28T23:50:25.678Z,99666.25
2022-09-28T23:52:52.522Z,99669.47
2022-09-28T23:55:19.299Z,99658.69
2022-09-28T23:57:46.377Z,99660.38
